createdAt,value
2019-01-11T00:00:52.359Z,72.83
2019-01-11T00:01:52.426Z,73.59
2019-01-11T00:02:52.346Z,72.93
2019-01-11T00:03:52.319Z,72.83
2019-01-11T00:04:52.508Z,73.03
2019-01-11T00:05:52.327Z,73.07
2019-01-11T00:06:52.315Z,73.14
2019-01-11T00:07:52.296Z,72.93
2019-01-11T00:08:52.264Z,73.35
2019-01-11T00:09:52.542Z,73.45
2019-01-11T00:10:52.283Z,73.38
2019-01-11T00:11:52.247Z,73.27
2019-01-11T00:12:52.224Z,73.24
2019-01-11T00:13:52.227Z,73.66
2019-01-11T00:14:52.202Z,73.38
2019-01-11T00:15:52.444Z,73.24
2019-01-11T00:16:52.230Z,73.59
2019-01-11T00:17:52.337Z,73.59
2019-01-11T00:18:52.231Z,73.66
2019-01-11T00:19:52.156Z,73.66
2019-01-11T00:20:52.156Z,73.80
2019-01-11T00:21:52.267Z,74.21
2019-01-11T00:22:53.354Z,74.01
2019-01-11T00:23:52.304Z,73.80
2019-01-11T00:24:52.098Z,73.86
2019-01-11T00:25:53.731Z,73.86
2019-01-11T00:26:52.074Z,73.76
2019-01-11T00:27:52.086Z,74.39
2019-01-11T00:28:52.073Z,73.80
2019-01-11T00:29:56.083Z,74.49
2019-01-11T00:30:52.037Z,73.90
2019-01-11T00:31:52.025Z,74.29
2019-01-11T00:32:52.006Z,74.01
2019-01-11T00:33:53.782Z,74.21
2019-01-11T00:34:52.250Z,74.18
2019-01-11T00:35:52.803Z,73.97
2019-01-11T00:36:52.174Z,74.01
2019-01-11T00:37:52.198Z,74.18
2019-01-11T00:38:51.993Z,74.29
2019-01-11T00:39:51.958Z,74.42
2019-01-11T00:40:52.172Z,74.39
2019-01-11T00:41:52.977Z,74.01
2019-01-11T00:42:52.160Z,74.01
2019-01-11T00:43:51.919Z,74.01
2019-01-11T00:44:51.893Z,73.90
2019-01-11T00:45:52.934Z,74.29
2019-01-11T00:46:51.880Z,73.90
2019-01-11T00:47:52.995Z,74.42
2019-01-11T00:48:52.139Z,74.11
2019-01-11T00:49:52.226Z,74.11
2019-01-11T00:50:51.884Z,74.74
2019-01-11T00:51:51.811Z,74.18
2019-01-11T00:52:51.952Z,74.21
2019-01-11T00:53:51.780Z,73.97
2019-01-11T00:54:51.831Z,74.18
2019-01-11T00:55:51.942Z,74.07
2019-01-11T00:56:51.757Z,74.52
2019-01-11T00:57:51.738Z,74.80
2019-01-11T00:58:51.729Z,74.70
2019-01-11T00:59:51.723Z,74.52
2019-01-11T01:00:51.726Z,74.84
2019-01-11T01:01:51.902Z,74.01
2019-01-11T01:02:51.707Z,74.42
2019-01-11T01:03:51.757Z,75.05
2019-01-11T01:04:51.662Z,75.15
2019-01-11T01:05:52.027Z,74.95
2019-01-11T01:06:51.677Z,75.15
2019-01-11T01:07:51.833Z,75.05
2019-01-11T01:08:53.677Z,75.26
2019-01-11T01:09:51.877Z,75.88
2019-01-11T01:10:51.630Z,75.57
2019-01-11T01:11:51.967Z,75.29
2019-01-11T01:12:51.910Z,75.40
2019-01-11T01:13:51.730Z,75.67
2019-01-11T01:14:51.644Z,75.57
2019-01-11T01:15:52.705Z,75.71
2019-01-11T01:16:51.650Z,75.71
2019-01-11T01:17:52.364Z,75.50
2019-01-11T01:18:52.054Z,75.50
2019-01-11T01:19:52.261Z,75.71
2019-01-11T01:20:51.650Z,75.60
2019-01-11T01:21:53.030Z,76.12
2019-01-11T01:22:51.662Z,76.23
2019-01-11T01:23:52.007Z,76.65
2019-01-11T01:24:51.743Z,75.92
2019-01-11T01:25:51.467Z,76.30
2019-01-11T01:26:51.586Z,76.43
2019-01-11T01:27:51.420Z,75.78
2019-01-11T01:28:51.451Z,76.02
2019-01-11T01:29:53.692Z,76.30
2019-01-11T01:30:51.388Z,75.98
2019-01-11T01:31:51.380Z,76.30
2019-01-11T01:32:51.365Z,75.88
2019-01-11T01:33:51.931Z,76.33
2019-01-11T01:34:51.344Z,76.09
2019-01-11T01:35:51.340Z,75.98
2019-01-11T01:36:51.331Z,75.98
2019-01-11T01:37:51.379Z,76.51
2019-01-11T01:38:51.291Z,76.20
2019-01-11T01:39:51.924Z,76.61
2019-01-11T01:40:51.273Z,76.61
2019-01-11T01:41:52.162Z,76.09
2019-01-11T01:42:51.258Z,76.30
2019-01-11T01:43:51.259Z,76.51
2019-01-11T01:44:51.224Z,75.88
2019-01-11T01:45:52.227Z,75.88
2019-01-11T01:46:53.304Z,76.72
2019-01-11T01:47:51.211Z,76.54
2019-01-11T01:48:51.210Z,76.61
2019-01-11T01:49:51.219Z,76.72
2019-01-11T01:51:06.517Z,76.30
2019-01-11T01:51:51.158Z,76.40
2019-01-11T01:52:51.158Z,76.82
2019-01-11T01:53:51.129Z,76.51
2019-01-11T01:54:51.182Z,76.09
2019-01-11T01:55:51.105Z,76.72
2019-01-11T01:56:51.414Z,77.23
2019-01-11T01:57:51.321Z,76.92
2019-01-11T01:58:52.568Z,77.06
2019-01-11T01:59:51.119Z,76.75
2019-01-11T02:00:51.094Z,76.51
2019-01-11T02:01:51.043Z,76.86
2019-01-11T02:02:51.855Z,76.54
2019-01-11T02:03:51.018Z,77.06
2019-01-11T02:04:51.023Z,77.69
2019-01-11T02:05:51.380Z,77.69
2019-01-11T02:06:50.993Z,77.69
2019-01-11T02:07:50.987Z,77.37
2019-01-11T02:08:50.970Z,77.48
2019-01-11T02:09:50.979Z,77.58
2019-01-11T02:10:50.967Z,77.58
2019-01-11T02:11:51.189Z,77.48
2019-01-11T02:12:50.946Z,77.58
2019-01-11T02:13:50.953Z,77.55
2019-01-11T02:14:50.913Z,77.69
2019-01-11T02:15:51.022Z,78.00
2019-01-11T02:16:50.884Z,77.97
2019-01-11T02:17:51.454Z,77.58
2019-01-11T02:18:50.863Z,77.66
2019-01-11T02:19:53.264Z,77.58
2019-01-11T02:20:50.838Z,77.55
2019-01-11T02:21:50.850Z,78.07
2019-01-11T02:22:50.824Z,77.76
2019-01-11T02:23:51.016Z,77.76
2019-01-11T02:24:50.793Z,77.66
2019-01-11T02:25:50.792Z,77.76
2019-01-11T02:26:51.037Z,77.76
2019-01-11T02:27:50.775Z,77.76
2019-01-11T02:28:50.764Z,77.66
2019-01-11T02:29:50.739Z,77.86
2019-01-11T02:30:50.811Z,77.76
2019-01-11T02:31:50.720Z,77.76
2019-01-11T02:32:52.811Z,77.76
2019-01-11T02:33:50.707Z,77.76
2019-01-11T02:34:50.740Z,77.76
2019-01-11T02:35:50.898Z,77.76
2019-01-11T02:36:50.659Z,77.86
2019-01-11T02:37:50.650Z,78.38
2019-01-11T02:38:50.649Z,78.17
2019-01-11T02:39:50.637Z,78.28
2019-01-11T02:40:51.785Z,78.07
2019-01-11T02:41:50.832Z,78.49
2019-01-11T02:42:50.607Z,78.38
2019-01-11T02:43:50.592Z,78.31
2019-01-11T02:44:50.586Z,79.05
2019-01-11T02:45:50.586Z,78.91
2019-01-11T02:46:50.786Z,78.83
2019-01-11T02:47:50.637Z,79.05
2019-01-11T02:48:50.548Z,78.94
2019-01-11T02:49:50.530Z,78.69
2019-01-11T02:50:50.515Z,78.83
2019-01-11T02:51:51.234Z,78.94
2019-01-11T02:52:50.829Z,78.91
2019-01-11T02:53:50.489Z,78.83
2019-01-11T02:54:50.479Z,79.05
2019-01-11T02:55:50.474Z,78.59
2019-01-11T02:56:50.456Z,79.22
2019-01-11T02:57:50.699Z,78.80
2019-01-11T02:58:50.451Z,79.32
2019-01-11T02:59:50.425Z,79.32
2019-01-11T03:00:50.409Z,79.36
2019-01-11T03:01:51.611Z,79.32
2019-01-11T03:02:50.496Z,79.63
2019-01-11T03:03:50.926Z,79.43
2019-01-11T03:04:51.190Z,79.53
2019-01-11T03:05:50.505Z,79.43
2019-01-11T03:06:50.355Z,79.67
2019-01-11T03:07:50.339Z,79.43
2019-01-11T03:08:50.323Z,79.22
2019-01-11T03:09:50.524Z,79.53
2019-01-11T03:10:51.658Z,79.98
2019-01-11T03:11:50.304Z,79.67
2019-01-11T03:12:51.065Z,80.30
2019-01-11T03:13:50.271Z,80.30
2019-01-11T03:14:50.429Z,80.09
2019-01-11T03:15:51.320Z,80.40
2019-01-11T03:16:56.508Z,80.09
2019-01-11T03:17:50.237Z,80.68
2019-01-11T03:18:50.214Z,80.71
2019-01-11T03:19:50.295Z,80.92
2019-01-11T03:20:54.249Z,80.40
2019-01-11T03:21:50.236Z,81.02
2019-01-11T03:22:51.330Z,80.51
2019-01-11T03:23:50.182Z,81.16
2019-01-11T03:24:50.564Z,81.02
2019-01-11T03:25:50.137Z,81.16
2019-01-11T03:26:50.371Z,81.45
2019-01-11T03:27:50.119Z,81.76
2019-01-11T03:28:50.105Z,81.76
2019-01-11T03:29:51.270Z,81.65
2019-01-11T03:30:52.413Z,81.34
2019-01-11T03:31:50.329Z,81.34
2019-01-11T03:32:50.058Z,81.34
2019-01-11T03:33:50.055Z,80.61
2019-01-11T03:34:50.703Z,80.92
2019-01-11T03:35:50.032Z,80.82
2019-01-11T03:36:50.098Z,81.02
2019-01-11T03:37:50.151Z,80.99
2019-01-11T03:38:50.420Z,81.13
2019-01-11T03:39:49.990Z,80.92
2019-01-11T03:40:50.026Z,81.02
2019-01-11T03:41:52.555Z,81.02
2019-01-11T03:42:50.289Z,81.13
2019-01-11T03:43:50.899Z,81.45
2019-01-11T03:44:50.934Z,81.41
2019-01-11T03:45:51.681Z,81.45
2019-01-11T03:46:49.927Z,81.86
2019-01-11T03:47:49.908Z,81.96
2019-01-11T03:48:49.888Z,81.86
2019-01-11T03:49:54.755Z,81.86
2019-01-11T03:50:50.409Z,81.55
2019-01-11T03:51:51.722Z,82.07
2019-01-11T03:52:49.848Z,82.21
2019-01-11T03:53:50.110Z,82.42
2019-01-11T03:54:49.842Z,82.59
2019-01-11T03:55:50.391Z,82.53
2019-01-11T03:56:49.870Z,82.90
2019-01-11T03:57:49.846Z,82.84
2019-01-11T03:58:49.781Z,83.11
2019-01-11T03:59:49.773Z,82.90
2019-01-11T04:00:49.751Z,83.04
2019-01-11T04:01:50.770Z,83.36
2019-01-11T04:02:49.745Z,83.36
2019-01-11T04:03:49.751Z,83.47
2019-01-11T04:04:49.716Z,83.47
2019-01-11T04:05:51.023Z,83.25
2019-01-11T04:06:49.829Z,83.15
2019-01-11T04:07:49.916Z,83.47
2019-01-11T04:08:49.835Z,83.22
2019-01-11T04:09:49.708Z,83.57
2019-01-11T04:10:49.842Z,83.32
2019-01-11T04:11:49.688Z,83.57
2019-01-11T04:12:51.550Z,83.47
2019-01-11T04:13:49.913Z,83.42
2019-01-11T04:14:49.857Z,83.42
2019-01-11T04:15:49.710Z,83.98
2019-01-11T04:16:49.692Z,83.88
2019-01-11T04:17:49.696Z,83.98
2019-01-11T04:18:49.675Z,84.50
2019-01-11T04:19:49.938Z,84.30
2019-01-11T04:20:55.919Z,84.40
2019-01-11T04:21:49.682Z,84.36
2019-01-11T04:22:49.667Z,84.40
2019-01-11T04:23:49.690Z,84.09
2019-01-11T04:24:49.687Z,84.40
2019-01-11T04:25:50.339Z,84.82
2019-01-11T04:26:49.477Z,84.82
2019-01-11T04:27:49.776Z,84.72
2019-01-11T04:28:49.452Z,84.61
2019-01-11T04:29:50.428Z,85.10
2019-01-11T04:30:49.438Z,85.13
2019-01-11T04:31:50.451Z,84.19
2019-01-11T04:32:49.417Z,84.50
2019-01-11T04:33:50.383Z,84.30
2019-01-11T04:34:49.402Z,85.13
2019-01-11T04:35:50.362Z,85.13
2019-01-11T04:36:49.371Z,85.24
2019-01-11T04:37:50.161Z,85.03
2019-01-11T04:38:49.491Z,85.69
2019-01-11T04:39:49.348Z,85.13
2019-01-11T04:40:49.324Z,85.38
2019-01-11T04:41:49.318Z,85.06
2019-01-11T04:42:49.325Z,85.80
2019-01-11T04:43:49.677Z,85.44
2019-01-11T04:44:49.407Z,85.69
2019-01-11T04:45:49.281Z,85.80
2019-01-11T04:46:49.301Z,85.34
2019-01-11T04:47:49.465Z,85.69
2019-01-11T04:48:49.995Z,86.32
2019-01-11T04:49:49.231Z,86.07
2019-01-11T04:50:49.213Z,86.00
2019-01-11T04:51:49.217Z,85.44
2019-01-11T04:52:49.199Z,85.76
2019-01-11T04:53:49.385Z,86.28
2019-01-11T04:54:49.214Z,86.11
2019-01-11T04:55:49.663Z,85.76
2019-01-11T04:56:49.173Z,85.49
2019-01-11T04:57:52.093Z,86.11
2019-01-11T04:58:50.080Z,85.90
2019-01-11T04:59:49.317Z,87.05
2019-01-11T05:00:50.101Z,86.43
2019-01-11T05:01:49.399Z,87.47
2019-01-11T05:02:51.482Z,87.05
2019-01-11T05:03:49.977Z,87.15
2019-01-11T05:04:51.012Z,86.63
2019-01-11T05:05:49.216Z,86.94
2019-01-11T05:06:49.112Z,87.26
2019-01-11T05:07:49.107Z,86.94
2019-01-11T05:08:49.042Z,86.74
2019-01-11T05:09:49.754Z,86.74
2019-01-11T05:10:49.105Z,86.84
2019-01-11T05:11:49.865Z,86.94
2019-01-11T05:12:51.695Z,86.94
2019-01-11T05:13:49.001Z,87.37
2019-01-11T05:14:49.149Z,87.47
2019-01-11T05:15:49.292Z,87.37
2019-01-11T05:16:51.055Z,87.15
2019-01-11T05:17:49.310Z,87.05
2019-01-11T05:18:49.238Z,87.15
2019-01-11T05:19:49.121Z,87.37
2019-01-11T05:20:50.387Z,87.26
2019-01-11T05:21:49.173Z,87.05
2019-01-11T05:22:48.871Z,87.26
2019-01-11T05:23:53.780Z,87.15
2019-01-11T05:24:49.870Z,87.84
2019-01-11T05:25:49.047Z,87.78
2019-01-11T05:26:48.849Z,87.68
2019-01-11T05:27:49.061Z,88.09
2019-01-11T05:28:49.002Z,87.68
2019-01-11T05:29:49.219Z,87.88
2019-01-11T05:30:48.908Z,87.88
2019-01-11T05:31:49.670Z,88.41
2019-01-11T05:32:49.122Z,89.34
2019-01-11T05:33:49.088Z,89.18
2019-01-11T05:34:49.147Z,89.49
2019-01-11T05:35:49.083Z,89.76
2019-01-11T05:36:49.996Z,89.56
2019-01-11T05:37:50.243Z,89.70
2019-01-11T05:38:49.068Z,89.91
2019-01-11T05:39:49.138Z,90.22
2019-01-11T05:40:49.063Z,90.01
2019-01-11T05:41:52.322Z,90.50
2019-01-11T05:42:54.084Z,90.64
2019-01-11T05:43:50.548Z,90.75
2019-01-11T05:44:51.907Z,90.75
2019-01-11T05:45:49.187Z,91.12
2019-01-11T05:46:58.018Z,91.12
2019-01-11T05:47:51.923Z,91.22
2019-01-11T05:48:49.296Z,91.43
2019-01-11T05:49:50.280Z,91.33
2019-01-11T05:50:49.147Z,91.33
2019-01-11T05:51:49.206Z,91.02
2019-01-11T05:52:49.357Z,91.22
2019-01-11T05:53:49.234Z,91.54
2019-01-11T05:54:50.864Z,91.43
2019-01-11T05:55:49.485Z,91.75
2019-01-11T05:56:49.223Z,92.10
2019-01-11T05:57:51.352Z,92.10
2019-01-11T05:58:49.149Z,92.41
2019-01-11T05:59:49.034Z,92.41
2019-01-11T06:00:56.398Z,93.04
2019-01-11T06:01:49.053Z,93.46
2019-01-11T06:02:48.965Z,93.57
2019-01-11T06:03:49.099Z,93.57
2019-01-11T06:04:48.980Z,92.63
2019-01-11T06:05:51.170Z,92.58
2019-01-11T06:06:53.305Z,92.83
2019-01-11T06:07:51.625Z,93.25
2019-01-11T06:08:48.906Z,93.15
2019-01-11T06:09:49.868Z,93.15
2019-01-11T06:10:49.975Z,94.09
2019-01-11T06:11:52.141Z,94.19
2019-01-11T06:12:49.923Z,94.19
2019-01-11T06:13:49.718Z,94.40
2019-01-11T06:14:49.441Z,94.61
2019-01-11T06:15:49.719Z,94.09
2019-01-11T06:16:51.999Z,94.09
2019-01-11T06:17:49.039Z,94.09
2019-01-11T06:18:49.388Z,94.29
2019-01-11T06:19:49.226Z,94.29
2019-01-11T06:20:49.157Z,94.50
2019-01-11T06:21:49.077Z,93.25
2019-01-11T06:22:50.330Z,93.04
2019-01-11T06:23:49.470Z,93.15
2019-01-11T06:24:49.079Z,93.25
2019-01-11T06:25:49.260Z,93.04
2019-01-11T06:26:49.812Z,93.25
2019-01-11T06:27:51.460Z,93.25
2019-01-11T06:28:49.252Z,93.35
2019-01-11T06:29:49.768Z,93.15
2019-01-11T06:30:49.035Z,93.77
2019-01-11T06:31:49.109Z,93.21
2019-01-11T06:32:49.177Z,93.10
2019-01-11T06:33:50.392Z,93.15
2019-01-11T06:34:48.946Z,93.25
2019-01-11T06:35:49.006Z,93.25
2019-01-11T06:36:49.007Z,93.57
2019-01-11T06:37:49.006Z,94.29
2019-01-11T06:38:49.033Z,93.41
2019-01-11T06:39:50.224Z,94.15
2019-01-11T06:40:49.041Z,94.29
2019-01-11T06:41:48.933Z,94.29
2019-01-11T06:42:49.040Z,93.77
2019-01-11T06:43:48.928Z,93.35
2019-01-11T06:44:51.532Z,94.71
2019-01-11T06:45:50.551Z,94.19
2019-01-11T06:46:48.921Z,94.40
2019-01-11T06:47:47.956Z,94.19
2019-01-11T06:48:47.937Z,93.98
2019-01-11T06:49:47.928Z,94.19
2019-01-11T06:50:50.611Z,94.40
2019-01-11T06:51:47.938Z,94.19
2019-01-11T06:52:47.904Z,94.09
2019-01-11T06:53:47.935Z,93.98
2019-01-11T06:54:47.934Z,94.40
2019-01-11T06:55:54.097Z,94.09
2019-01-11T06:56:48.496Z,94.29
2019-01-11T06:57:49.727Z,94.09
2019-01-11T06:59:59.762Z,94.82
2019-01-11T07:00:59.764Z,94.61
2019-01-11T07:01:59.180Z,94.82
2019-01-11T07:02:59.975Z,94.71
2019-01-11T07:03:59.157Z,94.50
2019-01-11T07:04:59.145Z,94.40
2019-01-11T07:05:59.219Z,95.23
2019-01-11T07:07:02.321Z,95.44
2019-01-11T07:07:59.118Z,95.55
2019-01-11T07:09:01.925Z,95.55
2019-01-11T07:09:59.097Z,95.55
2019-01-11T07:10:59.080Z,94.71
2019-01-11T07:12:00.936Z,94.29
2019-01-11T07:13:02.029Z,94.71
2019-01-11T07:13:59.360Z,94.40
2019-01-11T07:14:59.839Z,94.40
2019-01-11T07:15:59.448Z,94.40
2019-01-11T07:17:00.098Z,94.19
2019-01-11T07:18:01.600Z,94.50
2019-01-11T07:18:59.130Z,94.09
2019-01-11T07:20:05.363Z,94.61
2019-01-11T07:21:00.490Z,94.71
2019-01-11T07:21:59.117Z,94.50
2019-01-11T07:22:59.255Z,94.92
2019-01-11T07:24:00.203Z,95.13
2019-01-11T07:24:58.930Z,94.92
2019-01-11T07:25:58.941Z,95.97
2019-01-11T07:26:58.936Z,95.13
2019-01-11T07:27:58.906Z,94.92
2019-01-11T07:28:58.885Z,94.92
2019-01-11T07:30:10.101Z,95.23
2019-01-11T07:30:58.874Z,94.71
2019-01-11T07:31:58.872Z,95.76
2019-01-11T07:32:58.897Z,95.03
2019-01-11T07:33:58.845Z,96.13
2019-01-11T07:34:59.489Z,94.78
2019-01-11T07:35:58.948Z,94.57
2019-01-11T07:36:58.856Z,94.15
2019-01-11T07:37:59.012Z,93.10
2019-01-11T07:38:58.792Z,93.31
2019-01-11T07:39:59.230Z,93.52
2019-01-11T07:41:01.268Z,93.94
2019-01-11T07:41:59.039Z,93.41
2019-01-11T07:42:58.757Z,93.21
2019-01-11T07:43:58.734Z,93.41
2019-01-11T07:45:00.245Z,93.94
2019-01-11T07:46:04.329Z,94.57
2019-01-11T07:46:59.719Z,93.41
2019-01-11T07:47:58.681Z,93.10
2019-01-11T07:48:58.698Z,93.84
2019-01-11T07:49:58.722Z,94.09
2019-01-11T07:50:59.062Z,94.19
2019-01-11T07:51:58.643Z,94.46
2019-01-11T07:52:58.630Z,94.25
2019-01-11T07:53:58.689Z,95.29
2019-01-11T07:54:58.658Z,95.92
2019-01-11T07:55:59.044Z,95.92
2019-01-11T07:56:59.695Z,94.78
2019-01-11T07:57:58.701Z,95.19
2019-01-11T07:58:58.739Z,94.25
2019-01-11T07:59:58.628Z,94.31
2019-01-11T08:00:58.569Z,93.94
2019-01-11T08:02:00.776Z,94.04
2019-01-11T08:02:58.745Z,93.37
2019-01-11T08:03:58.644Z,94.35
2019-01-11T08:04:58.542Z,93.94
2019-01-11T08:05:58.525Z,94.31
2019-01-11T08:06:58.659Z,94.31
2019-01-11T08:07:59.658Z,94.63
2019-01-11T08:08:58.471Z,93.90
2019-01-11T08:09:58.453Z,93.16
2019-01-11T08:10:58.445Z,93.37
2019-01-11T08:11:58.436Z,93.63
2019-01-11T08:12:58.417Z,93.48
2019-01-11T08:13:58.620Z,93.90
2019-01-11T08:14:58.671Z,94.00
2019-01-11T08:15:58.417Z,94.31
2019-01-11T08:16:58.503Z,93.48
2019-01-11T08:17:59.232Z,93.06
2019-01-11T08:18:58.631Z,93.06
2019-01-11T08:19:58.744Z,93.48
2019-01-11T08:20:59.919Z,93.59
2019-01-11T08:21:58.903Z,92.96
2019-01-11T08:22:59.614Z,92.33
2019-01-11T08:23:58.682Z,92.54
2019-01-11T08:24:58.717Z,93.69
2019-01-11T08:25:58.303Z,92.85
2019-01-11T08:26:58.288Z,93.59
2019-01-11T08:27:58.273Z,93.27
2019-01-11T08:28:58.284Z,93.37
2019-01-11T08:29:58.288Z,93.12
2019-01-11T08:30:58.659Z,93.16
2019-01-11T08:31:58.227Z,93.27
2019-01-11T08:32:58.200Z,93.16
2019-01-11T08:33:58.203Z,93.37
2019-01-11T08:34:58.188Z,93.27
2019-01-11T08:35:58.177Z,92.91
2019-01-11T08:36:58.542Z,93.33
2019-01-11T08:37:58.424Z,92.50
2019-01-11T08:38:58.258Z,92.50
2019-01-11T08:39:58.145Z,92.12
2019-01-11T08:40:58.241Z,91.91
2019-01-11T08:41:58.268Z,92.22
2019-01-11T08:42:58.142Z,91.71
2019-01-11T08:43:58.091Z,92.33
2019-01-11T08:44:58.096Z,92.44
2019-01-11T08:45:58.977Z,92.71
2019-01-11T08:46:58.568Z,92.50
2019-01-11T08:47:58.710Z,91.97
2019-01-11T08:48:59.291Z,91.66
2019-01-11T08:49:59.089Z,91.97
2019-01-11T08:51:02.601Z,92.29
2019-01-11T08:51:58.251Z,91.56
2019-01-11T08:52:57.980Z,91.66
2019-01-11T08:53:58.188Z,92.40
2019-01-11T08:54:57.989Z,92.18
2019-01-11T08:55:58.048Z,91.52
2019-01-11T08:56:57.954Z,91.62
2019-01-11T08:57:58.086Z,91.62
2019-01-11T08:58:57.922Z,91.46
2019-01-11T08:59:58.606Z,91.31
2019-01-11T09:00:57.988Z,91.31
2019-01-11T09:01:57.896Z,92.03
2019-01-11T09:02:57.874Z,91.72
2019-01-11T09:03:57.882Z,91.93
2019-01-11T09:04:58.247Z,91.93
2019-01-11T09:05:58.007Z,92.25
2019-01-11T09:06:58.537Z,92.14
2019-01-11T09:07:59.322Z,92.14
2019-01-11T09:08:57.951Z,92.25
2019-01-11T09:09:57.796Z,92.35
2019-01-11T09:10:58.314Z,91.93
2019-01-11T09:11:57.774Z,92.14
2019-01-11T09:13:00.563Z,92.14
2019-01-11T09:13:57.780Z,92.46
2019-01-11T09:14:57.962Z,92.35
2019-01-11T09:15:57.731Z,93.08
2019-01-11T09:16:59.925Z,92.77
2019-01-11T09:17:57.711Z,92.87
2019-01-11T09:18:58.559Z,92.97
2019-01-11T09:19:57.913Z,92.97
2019-01-11T09:20:58.563Z,93.29
2019-01-11T09:21:58.981Z,93.40
2019-01-11T09:22:58.089Z,92.97
2019-01-11T09:23:58.034Z,93.08
2019-01-11T09:24:57.676Z,92.56
2019-01-11T09:25:57.853Z,92.97
2019-01-11T09:26:57.679Z,93.29
2019-01-11T09:27:58.234Z,93.08
2019-01-11T09:28:57.658Z,92.97
2019-01-11T09:29:57.896Z,93.29
2019-01-11T09:30:57.729Z,93.71
2019-01-11T09:31:57.737Z,92.97
2019-01-11T09:32:57.757Z,92.97
2019-01-11T09:33:58.449Z,93.29
2019-01-11T09:34:57.525Z,93.50
2019-01-11T09:35:57.525Z,92.97
2019-01-11T09:36:57.697Z,93.91
2019-01-11T09:37:57.695Z,93.71
2019-01-11T09:38:58.466Z,93.66
2019-01-11T09:39:57.654Z,93.81
2019-01-11T09:40:57.570Z,93.56
2019-01-11T09:41:57.460Z,93.08
2019-01-11T09:42:57.467Z,93.04
2019-01-11T09:43:57.804Z,93.24
2019-01-11T09:44:57.497Z,92.97
2019-01-11T09:45:57.894Z,93.14
2019-01-11T09:46:58.723Z,93.81
2019-01-11T09:47:57.758Z,93.81
2019-01-11T09:48:57.412Z,94.33
2019-01-11T09:49:58.325Z,94.08
2019-01-11T09:50:57.357Z,94.08
2019-01-11T09:51:57.354Z,93.77
2019-01-11T09:52:58.486Z,94.43
2019-01-11T09:53:58.073Z,94.54
2019-01-11T09:54:57.360Z,94.39
2019-01-11T09:55:57.305Z,94.02
2019-01-11T09:56:57.297Z,94.08
2019-01-11T09:57:57.283Z,93.77
2019-01-11T09:58:57.283Z,93.87
2019-01-11T09:59:57.883Z,93.66
2019-01-11T10:00:59.212Z,93.24
2019-01-11T10:01:57.325Z,93.91
2019-01-11T10:02:57.248Z,94.08
2019-01-11T10:03:57.433Z,93.77
2019-01-11T10:04:57.217Z,93.87
2019-01-11T10:05:58.097Z,93.66
2019-01-11T10:06:57.362Z,93.81
2019-01-11T10:07:57.175Z,94.23
2019-01-11T10:08:57.156Z,93.98
2019-01-11T10:09:57.159Z,94.12
2019-01-11T10:10:57.345Z,93.81
2019-01-11T10:11:57.127Z,94.18
2019-01-11T10:12:57.746Z,93.87
2019-01-11T10:13:57.116Z,93.98
2019-01-11T10:14:57.104Z,93.81
2019-01-11T10:15:57.097Z,94.39
2019-01-11T10:16:57.292Z,93.71
2019-01-11T10:17:57.061Z,94.02
2019-01-11T10:18:57.125Z,94.08
2019-01-11T10:19:57.906Z,93.87
2019-01-11T10:20:57.214Z,94.18
2019-01-11T10:21:58.167Z,93.66
2019-01-11T10:22:57.204Z,93.87
2019-01-11T10:23:59.263Z,93.98
2019-01-11T10:24:57.146Z,94.18
2019-01-11T10:26:00.776Z,94.60
2019-01-11T10:26:57.459Z,94.60
2019-01-11T10:27:56.963Z,94.18
2019-01-11T10:28:56.942Z,94.29
2019-01-11T10:29:57.098Z,94.08
2019-01-11T10:31:00.669Z,93.77
2019-01-11T10:31:56.915Z,94.64
2019-01-11T10:32:56.936Z,95.02
2019-01-11T10:33:56.905Z,94.39
2019-01-11T10:34:56.884Z,94.49
2019-01-11T10:35:57.274Z,94.60
2019-01-11T10:36:57.639Z,94.39
2019-01-11T10:37:56.850Z,94.04
2019-01-11T10:38:57.117Z,94.04
2019-01-11T10:39:56.852Z,93.98
2019-01-11T10:40:56.824Z,93.93
2019-01-11T10:41:56.798Z,93.73
2019-01-11T10:42:56.791Z,94.04
2019-01-11T10:43:56.778Z,93.93
2019-01-11T10:44:59.946Z,94.14
2019-01-11T10:45:56.781Z,94.04
2019-01-11T10:46:56.747Z,94.35
2019-01-11T10:47:56.744Z,93.83
2019-01-11T10:48:56.755Z,93.62
2019-01-11T10:49:57.043Z,94.24
2019-01-11T10:50:56.747Z,93.83
2019-01-11T10:51:56.865Z,93.99
2019-01-11T10:52:56.813Z,93.93
2019-01-11T10:53:56.682Z,94.20
2019-01-11T10:54:56.767Z,93.93
2019-01-11T10:55:56.654Z,93.99
2019-01-11T10:56:57.330Z,94.04
2019-01-11T10:57:56.688Z,94.04
2019-01-11T10:58:56.727Z,94.24
2019-01-11T10:59:56.621Z,94.35
2019-01-11T11:00:56.610Z,94.70
2019-01-11T11:01:56.597Z,94.76
2019-01-11T11:02:56.819Z,95.39
2019-01-11T11:03:56.567Z,95.70
2019-01-11T11:04:56.550Z,95.50
2019-01-11T11:05:56.993Z,95.56
2019-01-11T11:06:56.641Z,94.82
2019-01-11T11:07:57.325Z,95.66
2019-01-11T11:08:56.503Z,95.03
2019-01-11T11:09:56.611Z,94.31
2019-01-11T11:10:56.509Z,93.58
2019-01-11T11:11:56.511Z,94.41
2019-01-11T11:12:56.473Z,94.51
2019-01-11T11:13:56.998Z,94.41
2019-01-11T11:14:56.456Z,94.72
2019-01-11T11:15:56.452Z,94.82
2019-01-11T11:16:56.432Z,94.31
2019-01-11T11:17:56.628Z,94.20
2019-01-11T11:18:56.429Z,94.47
2019-01-11T11:20:00.040Z,93.79
2019-01-11T11:20:56.392Z,93.99
2019-01-11T11:21:56.383Z,94.26
2019-01-11T11:22:56.360Z,94.16
2019-01-11T11:23:56.715Z,93.95
2019-01-11T11:24:56.359Z,93.99
2019-01-11T11:25:56.705Z,93.89
2019-01-11T11:26:56.615Z,94.10
2019-01-11T11:27:56.310Z,95.03
2019-01-11T11:28:56.353Z,95.20
2019-01-11T11:29:56.680Z,95.40
2019-01-11T11:30:56.270Z,94.31
2019-01-11T11:31:56.619Z,94.41
2019-01-11T11:32:56.597Z,94.10
2019-01-11T11:33:57.770Z,94.51
2019-01-11T11:35:02.137Z,94.41
2019-01-11T11:35:56.219Z,94.20
2019-01-11T11:36:56.519Z,93.68
2019-01-11T11:37:56.210Z,94.20
2019-01-11T11:38:56.206Z,93.99
2019-01-11T11:39:56.530Z,94.16
2019-01-11T11:40:56.166Z,94.26
2019-01-11T11:41:56.214Z,93.95
2019-01-11T11:42:56.147Z,93.54
2019-01-11T11:43:56.131Z,93.33
2019-01-11T11:44:56.323Z,93.12
2019-01-11T11:45:56.163Z,92.86
2019-01-11T11:46:56.106Z,92.76
2019-01-11T11:47:56.108Z,92.66
2019-01-11T11:48:56.229Z,92.86
2019-01-11T11:49:56.537Z,93.07
2019-01-11T11:50:56.188Z,93.07
2019-01-11T11:51:56.036Z,93.07
2019-01-11T11:52:56.030Z,92.86
2019-01-11T11:53:56.020Z,93.07
2019-01-11T11:54:56.011Z,92.76
2019-01-11T11:55:59.973Z,92.76
2019-01-11T11:56:56.178Z,92.86
2019-01-11T11:57:56.007Z,92.97
2019-01-11T11:58:56.084Z,92.76
2019-01-11T11:59:55.985Z,93.39
2019-01-11T12:00:56.192Z,93.18
2019-01-11T12:01:56.182Z,93.49
2019-01-11T12:02:55.943Z,93.60
2019-01-11T12:03:55.923Z,94.12
2019-01-11T12:04:55.908Z,94.01
2019-01-11T12:05:55.895Z,94.12
2019-01-11T12:06:55.878Z,94.12
2019-01-11T12:07:56.203Z,93.91
2019-01-11T12:08:55.868Z,94.22
2019-01-11T12:09:56.052Z,93.60
2019-01-11T12:10:55.855Z,94.32
2019-01-11T12:11:55.963Z,93.91
2019-01-11T12:12:56.235Z,93.91
2019-01-11T12:13:55.965Z,93.70
2019-01-11T12:14:55.876Z,93.70
2019-01-11T12:15:55.890Z,93.60
2019-01-11T12:16:57.661Z,93.91
2019-01-11T12:17:56.379Z,94.22
2019-01-11T12:18:55.772Z,94.12
2019-01-11T12:19:57.184Z,94.18
2019-01-11T12:20:55.754Z,93.66
2019-01-11T12:22:01.488Z,94.07
2019-01-11T12:22:57.137Z,93.87
2019-01-11T12:23:55.734Z,93.55
2019-01-11T12:24:56.591Z,94.07
2019-01-11T12:25:56.076Z,93.93
2019-01-11T12:26:55.728Z,94.13
2019-01-11T12:27:55.662Z,93.30
2019-01-11T12:28:55.880Z,93.30
2019-01-11T12:29:55.673Z,93.41
2019-01-11T12:31:06.616Z,92.68
2019-01-11T12:31:55.695Z,93.41
2019-01-11T12:32:55.959Z,93.62
2019-01-11T12:33:55.674Z,93.41
2019-01-11T12:34:55.955Z,93.37
2019-01-11T12:35:56.090Z,93.62
2019-01-11T12:36:55.951Z,94.13
2019-01-11T12:37:55.964Z,93.30
2019-01-11T12:38:55.762Z,93.82
2019-01-11T12:39:56.085Z,93.82
2019-01-11T12:40:55.689Z,94.13
2019-01-11T12:41:55.799Z,93.93
2019-01-11T12:42:56.389Z,93.47
2019-01-11T12:43:55.647Z,93.99
2019-01-11T12:44:55.642Z,93.30
2019-01-11T12:45:55.583Z,93.57
2019-01-11T12:46:55.870Z,93.57
2019-01-11T12:47:56.103Z,93.68
2019-01-11T12:48:55.437Z,93.68
2019-01-11T12:49:55.842Z,93.57
2019-01-11T12:50:55.524Z,94.09
2019-01-11T12:51:55.420Z,93.57
2019-01-11T12:52:56.689Z,93.47
2019-01-11T12:53:55.950Z,93.68